Time;durP1;ratioP1;P1;durP2;ratioP2;P2;SDS_P1;SDS_P2;PMS_P1;PMS_P2;Temp;Humidity;BMP_temperature;BMP_pressure;BME280_temperature;BME280_humidity;BME280_pressure;Samples;Min_cycle;Max_cycle;Signal;HPM_P1;HPM_P2
2023/02/26 00:02:01;;;;;;;4.40;1.83;;;10.80;49.30;;;;;;7492663;23;20083;-66
2023/02/26 00:05:03;;;;;;;2.92;1.80;;;10.80;49.30;;;;;;7492173;23;20377;-66
2023/02/26 00:08:05;;;;;;;8.25;2.95;;;10.70;49.90;;;;;;7466291;23;20055;-67
2023/02/26 00:11:07;;;;;;;8.07;2.13;;;10.80;49.30;;;;;;7492183;23;20071;-66
2023/02/26 00:14:13;;;;;;;5.05;1.60;;;10.70;49.20;;;;;;7492230;23;20004;-68
2023/02/26 00:17:38;;;;;;;4.45;2.00;;;10.70;49.20;;;;;;7466325;23;20374;-67
2023/02/26 00:20:42;;;;;;;6.38;2.05;;;10.70;49.10;;;;;;7466594;23;20082;-67
2023/02/26 00:23:43;;;;;;;4.20;1.70;;;10.70;49.10;;;;;;7492357;23;20066;-67
2023/02/26 00:26:44;;;;;;;3.60;1.98;;;10.70;49.20;;;;;;7492306;23;20015;-67
2023/02/26 00:29:45;;;;;;;3.33;1.85;;;10.70;49.20;;;;;;7466504;23;20118;-68
2023/02/26 00:32:47;;;;;;;6.30;2.70;;;10.70;49.10;;;;;;7491833;23;20113;-66
2023/02/26 00:35:55;;;;;;;2.92;1.88;;;10.70;49.00;;;;;;7466728;23;20663;-71
2023/02/26 00:39:06;;;;;;;5.43;1.90;;;10.70;48.90;;;;;;7491344;23;20095;-67
2023/02/26 00:42:08;;;;;;;3.63;1.90;;;10.70;48.90;;;;;;7466443;23;20448;-67
2023/02/26 00:45:12;;;;;;;10.63;1.90;;;10.80;48.70;;;;;;7491915;23;20010;-67
2023/02/26 00:48:34;;;;;;;5.70;2.40;;;10.80;48.60;;;;;;7489743;23;20404;-67
2023/02/26 00:51:35;;;;;;;5.18;1.58;;;10.70;48.60;;;;;;7489874;23;20034;-66
2023/02/26 00:54:37;;;;;;;6.75;1.75;;;10.70;48.60;;;;;;7489929;23;20066;-69
2023/02/26 00:57:38;;;;;;;4.13;1.90;;;10.70;48.60;;;;;;7465287;23;20048;-67
2023/02/26 01:00:39;;;;;;;8.18;2.15;;;10.70;48.50;;;;;;7491704;23;20018;-66
2023/02/26 01:03:40;;;;;;;7.30;1.70;;;10.80;48.50;;;;;;7490004;23;20449;-66
2023/02/26 01:06:46;;;;;;;6.20;2.15;;;10.70;48.30;;;;;;7491542;23;20565;-67
2023/02/26 01:09:48;;;;;;;6.03;2.15;;;10.70;48.30;;;;;;7466154;23;20046;-66
2023/02/26 01:12:49;;;;;;;7.38;2.05;;;10.60;48.30;;;;;;7492019;23;20011;-66
2023/02/26 01:15:57;;;;;;;6.88;2.08;;;10.60;48.20;;;;;;7489849;23;20046;-67
2023/02/26 01:19:04;;;;;;;3.88;1.60;;;10.60;48.20;;;;;;7491135;23;20055;-66
2023/02/26 01:22:15;;;;;;;4.30;1.75;;;10.60;48.20;;;;;;7491747;23;20162;-66
2023/02/26 01:25:38;;;;;;;2.67;1.50;;;10.50;48.20;;;;;;7491295;23;20014;-66
2023/02/26 01:28:39;;;;;;;5.13;1.75;;;10.50;48.00;;;;;;7466556;23;20311;-73
2023/02/26 01:32:05;;;;;;;7.95;2.00;;;10.40;48.10;;;;;;7493142;23;20008;-68
2023/02/26 01:35:38;;;;;;;6.07;1.88;;;10.40;48.10;;;;;;7466260;23;20015;-66
2023/02/26 01:39:02;;;;;;;3.88;1.80;;;10.30;48.10;;;;;;7490677;23;20102;-65
2023/02/26 01:42:26;;;;;;;3.03;1.80;;;10.30;48.20;;;;;;7451327;23;20012;-67
2023/02/26 01:45:38;;;;;;;5.55;2.13;;;10.30;48.20;;;;;;7465775;23;20148;-67
2023/02/26 01:48:52;;;;;;;8.52;1.67;;;10.20;48.20;;;;;;7491491;23;20015;-67
2023/02/26 01:51:59;;;;;;;4.97;2.13;;;10.20;48.00;;;;;;7465869;23;20078;-68
2023/02/26 01:55:00;;;;;;;4.43;1.98;;;10.10;48.10;;;;;;7465461;23;20039;-66
2023/02/26 01:58:02;;;;;;;7.45;2.20;;;10.10;48.00;;;;;;7490978;23;20123;-66
2023/02/26 02:01:04;;;;;;;4.85;1.77;;;10.10;48.10;;;;;;7465818;23;20038;-67
2023/02/26 02:04:13;;;;;;;5.07;2.58;;;10.10;48.10;;;;;;7466100;23;20082;-68
2023/02/26 02:07:15;;;;;;;3.30;1.88;;;10.00;48.10;;;;;;7491020;23;20034;-65
2023/02/26 02:10:16;;;;;;;2.78;1.60;;;10.10;47.90;;;;;;7491299;23;20341;-67
2023/02/26 02:13:35;;;;;;;3.13;1.67;;;9.90;47.90;;;;;;7493521;23;20012;-66
2023/02/26 02:17:06;;;;;;;7.47;1.30;;;9.90;48.00;;;;;;7493588;23;20286;-65
2023/02/26 02:20:19;;;;;;;4.90;1.88;;;9.80;47.90;;;;;;7493222;23;20019;-66
2023/02/26 02:23:32;;;;;;;7.60;1.95;;;9.70;48.00;;;;;;7493491;23;20090;-67
2023/02/26 02:26:49;;;;;;;6.57;1.55;;;9.70;48.10;;;;;;7494143;23;20035;-65
2023/02/26 02:30:05;;;;;;;6.23;2.40;;;9.60;48.00;;;;;;7467644;23;20015;-67
2023/02/26 02:33:15;;;;;;;2.83;1.38;;;9.60;48.10;;;;;;7492931;23;20328;-66
2023/02/26 02:36:58;;;;;;;4.70;1.83;;;9.50;48.10;;;;;;7491702;23;20011;-66
2023/02/26 02:40:04;;;;;;;4.45;1.13;;;9.50;48.20;;;;;;7493638;23;20086;-66
2023/02/26 02:43:12;;;;;;;3.75;1.50;;;9.50;48.00;;;;;;7493215;23;20517;-67
2023/02/26 02:46:18;;;;;;;9.88;1.55;;;9.40;47.90;;;;;;7492345;23;20011;-67
2023/02/26 02:49:36;;;;;;;5.75;1.73;;;9.30;47.50;;;;;;7467795;23;20026;-67
2023/02/26 02:53:01;;;;;;;2.42;1.15;;;9.30;47.90;;;;;;7493215;23;20003;-66
2023/02/26 02:56:05;;;;;;;8.00;1.90;;;9.20;47.90;;;;;;7493197;23;20003;-66
2023/02/26 02:59:40;;;;;;;2.83;1.38;;;9.20;47.90;;;;;;7490452;23;20011;-66
2023/02/26 03:02:55;;;;;;;5.05;1.50;;;9.20;47.90;;;;;;7492390;23;20402;-66
2023/02/26 03:05:56;;;;;;;6.28;1.50;;;9.20;47.80;;;;;;7493167;23;20015;-66
2023/02/26 03:08:58;;;;;;;4.32;1.65;;;9.20;47.80;;;;;;7466174;23;20038;-67
2023/02/26 03:11:59;;;;;;;8.32;1.60;;;9.20;47.80;;;;;;7493042;23;20030;-67
2023/02/26 03:15:01;;;;;;;4.00;1.55;;;9.10;47.50;;;;;;7467344;23;20016;-66
2023/02/26 03:18:08;;;;;;;4.25;2.03;;;9.10;47.50;;;;;;7490740;23;20082;-66
2023/02/26 03:21:16;;;;;;;4.85;1.73;;;9.20;47.60;;;;;;7490573;23;20339;-67
2023/02/26 03:24:23;;;;;;;2.47;1.55;;;9.10;47.40;;;;;;7466975;23;20094;-67
2023/02/26 03:27:40;;;;;;;7.32;1.40;;;9.10;47.30;;;;;;7490035;23;20043;-67
2023/02/26 03:30:45;;;;;;;4.32;1.23;;;9.10;47.40;;;;;;7466864;23;20015;-66
2023/02/26 03:34:07;;;;;;;7.88;1.63;;;9.10;47.30;;;;;;7491040;23;20079;-66
2023/02/26 03:37:19;;;;;;;2.38;1.45;;;9.10;47.20;;;;;;7466671;23;20008;-67
2023/02/26 03:40:48;;;;;;;4.93;1.38;;;9.10;47.10;;;;;;7466917;23;20022;-67
2023/02/26 03:44:05;;;;;;;1.40;1.13;;;9.10;46.90;;;;;;7443898;23;20110;-66
2023/02/26 03:47:12;;;;;;;2.83;1.35;;;9.10;47.00;;;;;;7466821;23;20165;-66
2023/02/26 03:50:23;;;;;;;4.57;1.15;;;9.10;46.90;;;;;;7466642;23;20094;-66
2023/02/26 03:53:50;;;;;;;3.58;1.50;;;9.10;46.80;;;;;;7490182;23;20015;-66
2023/02/26 03:56:54;;;;;;;2.03;0.95;;;9.10;46.70;;;;;;7466621;23;20037;-66
2023/02/26 04:00:22;;;;;;;3.30;1.60;;;9.00;46.60;;;;;;7473183;23;20015;-67
2023/02/26 04:03:49;;;;;;;3.20;1.20;;;9.10;46.70;;;;;;7467025;23;20090;-66
2023/02/26 04:06:52;;;;;;;1.02;0.88;;;9.00;46.60;;;;;;7326653;24;20013;-66
2023/02/26 04:09:55;;;;;;;3.60;1.15;;;9.00;46.50;;;;;;7326490;24;20053;-67
2023/02/26 04:13:00;;;;;;;4.03;1.38;;;9.00;46.50;;;;;;7326996;24;20009;-67
2023/02/26 04:16:02;;;;;;;13.43;1.42;;;9.00;46.50;;;;;;7327355;24;20424;-67
2023/02/26 04:19:03;;;;;;;2.92;1.25;;;9.00;46.40;;;;;;7328531;24;20027;-67
2023/02/26 04:22:04;;;;;;;1.92;1.10;;;9.00;46.40;;;;;;7349218;24;20088;-67
2023/02/26 04:25:06;;;;;;;2.10;1.17;;;8.90;46.30;;;;;;7349292;24;20203;-66
2023/02/26 04:28:07;;;;;;;6.47;1.38;;;8.70;46.40;;;;;;7326184;24;20046;-66
2023/02/26 04:31:09;;;;;;;5.78;1.80;;;8.80;46.40;;;;;;7326013;24;20096;-66
2023/02/26 04:34:10;;;;;;;2.65;1.13;;;8.80;46.40;;;;;;7349267;24;20043;-68
2023/02/26 04:37:12;;;;;;;4.95;1.42;;;8.80;46.50;;;;;;7348815;24;20416;-66
2023/02/26 04:40:13;;;;;;;2.67;1.40;;;8.70;46.40;;;;;;7349182;24;20016;-68
2023/02/26 04:43:16;;;;;;;2.95;1.40;;;8.70;46.40;;;;;;7409411;23;20050;-66
2023/02/26 04:46:26;;;;;;;1.80;1.15;;;8.70;46.40;;;;;;7490011;23;20011;-66
2023/02/26 04:49:28;;;;;;;0.98;0.93;;;8.70;46.30;;;;;;7491179;23;20014;-67
2023/02/26 04:52:29;;;;;;;3.42;1.23;;;8.70;46.20;;;;;;7491455;23;20011;-68
2023/02/26 04:55:31;;;;;;;1.27;0.90;;;8.70;46.20;;;;;;7489883;23;20062;-66
2023/02/26 04:58:32;;;;;;;4.22;1.58;;;8.70;46.10;;;;;;7465848;23;20162;-66
2023/02/26 05:01:38;;;;;;;5.35;1.13;;;8.70;46.20;;;;;;7489992;23;20335;-67
2023/02/26 05:04:42;;;;;;;5.63;1.48;;;8.70;46.20;;;;;;7489844;23;20014;-68
2023/02/26 05:07:42;;;;;;;7.32;1.35;;;8.70;46.10;;;;;;7489861;23;20413;-67
2023/02/26 05:10:45;;;;;;;1.10;0.95;;;8.70;46.10;;;;;;7489835;23;20402;-66
2023/02/26 05:13:46;;;;;;;11.80;1.27;;;8.70;46.10;;;;;;7490128;23;20007;-67
2023/02/26 05:16:47;;;;;;;4.70;1.45;;;8.60;46.10;;;;;;7489639;23;20106;-67
2023/02/26 05:19:48;;;;;;;2.15;1.48;;;8.60;46.10;;;;;;7489645;23;20491;-67
2023/02/26 05:22:49;;;;;;;3.03;1.65;;;8.60;46.20;;;;;;7489450;23;20090;-67
2023/02/26 05:25:53;;;;;;;3.85;1.67;;;8.60;46.20;;;;;;7489778;23;20430;-67
2023/02/26 05:28:54;;;;;;;2.83;1.50;;;8.70;46.30;;;;;;7488996;23;20015;-66
2023/02/26 05:31:55;;;;;;;5.57;1.25;;;8.60;46.20;;;;;;7489849;23;20018;-67
2023/02/26 05:34:57;;;;;;;4.05;1.50;;;8.50;46.20;;;;;;7513798;23;20030;-67
2023/02/26 05:37:58;;;;;;;5.28;1.50;;;8.50;46.20;;;;;;7489548;23;20154;-68
2023/02/26 05:41:00;;;;;;;2.95;1.45;;;8.50;46.20;;;;;;7491255;23;20015;-68
2023/02/26 05:44:01;;;;;;;6.43;1.80;;;8.40;46.30;;;;;;7492603;23;20011;-66
2023/02/26 05:47:02;;;;;;;2.05;1.20;;;8.40;46.40;;;;;;7493618;23;20018;-66
2023/02/26 05:50:04;;;;;;;4.28;1.73;;;8.40;46.40;;;;;;7493873;23;20017;-66
2023/02/26 05:53:05;;;;;;;4.90;1.90;;;8.40;46.50;;;;;;7493640;23;20382;-66
2023/02/26 05:56:07;;;;;;;3.08;1.25;;;8.40;46.50;;;;;;7494264;23;20015;-69
2023/02/26 05:59:08;;;;;;;3.15;1.73;;;8.40;46.50;;;;;;7493077;23;20122;-67
2023/02/26 06:02:09;;;;;;;3.55;1.83;;;8.40;46.50;;;;;;7493915;23;20015;-68
2023/02/26 06:05:10;;;;;;;2.22;1.50;;;8.40;46.50;;;;;;7493467;23;20015;-68
2023/02/26 06:08:14;;;;;;;5.47;1.90;;;8.40;46.60;;;;;;7493038;23;20018;-66
2023/02/26 06:11:15;;;;;;;5.00;1.90;;;8.40;46.60;;;;;;7444359;23;20035;-67
2023/02/26 06:14:16;;;;;;;3.28;2.03;;;8.40;46.60;;;;;;7493521;23;20007;-67
2023/02/26 06:17:17;;;;;;;7.85;2.20;;;8.40;46.70;;;;;;7491231;23;20011;-65
2023/02/26 06:20:18;;;;;;;3.70;1.50;;;8.40;46.70;;;;;;7491839;23;20279;-67
2023/02/26 06:23:19;;;;;;;4.97;1.65;;;8.30;46.70;;;;;;7493366;23;20015;-67
2023/02/26 06:26:20;;;;;;;4.13;1.35;;;8.30;46.80;;;;;;7493405;23;20037;-67
2023/02/26 06:29:22;;;;;;;2.58;1.50;;;8.30;46.80;;;;;;7492676;23;20019;-67
2023/02/26 06:32:23;;;;;;;8.70;2.17;;;8.30;46.90;;;;;;7493264;23;20039;-66
2023/02/26 06:35:24;;;;;;;3.63;1.75;;;8.30;46.90;;;;;;7493339;23;20087;-67
2023/02/26 06:38:26;;;;;;;11.40;2.22;;;8.30;47.00;;;;;;7493077;23;20008;-66
2023/02/26 06:41:27;;;;;;;10.73;1.65;;;8.20;47.00;;;;;;7493127;23;20029;-67
2023/02/26 06:44:28;;;;;;;2.95;1.70;;;8.20;47.00;;;;;;7493398;23;20012;-67
2023/02/26 06:47:30;;;;;;;3.25;1.60;;;8.30;47.00;;;;;;7492739;23;20015;-66
2023/02/26 06:50:31;;;;;;;13.50;1.90;;;8.30;47.00;;;;;;7467742;23;20102;-65
2023/02/26 06:53:32;;;;;;;3.75;1.60;;;8.30;46.80;;;;;;7493293;23;20014;-65
2023/02/26 06:56:33;;;;;;;4.65;1.70;;;8.30;46.70;;;;;;7470782;23;20011;-64
2023/02/26 06:59:34;;;;;;;5.82;1.75;;;8.30;46.70;;;;;;7492708;23;20011;-66
2023/02/26 07:02:35;;;;;;;4.57;2.00;;;8.30;46.70;;;;;;7493247;23;20410;-68
2023/02/26 07:05:36;;;;;;;3.05;1.38;;;8.30;46.70;;;;;;7491275;23;20378;-66
2023/02/26 07:08:38;;;;;;;2.05;1.52;;;8.30;46.50;;;;;;7492813;23;20015;-65
2023/02/26 07:11:39;;;;;;;7.90;2.53;;;8.30;46.60;;;;;;7492923;23;20007;-66
2023/02/26 07:14:41;;;;;;;2.83;1.58;;;8.20;46.50;;;;;;7493149;23;20069;-67
2023/02/26 07:17:43;;;;;;;3.53;1.55;;;8.20;46.60;;;;;;7492547;23;20012;-68
2023/02/26 07:20:44;;;;;;;9.05;1.88;;;8.10;46.80;;;;;;7492815;23;20016;-67
2023/02/26 07:23:45;;;;;;;9.77;1.55;;;8.10;46.90;;;;;;7492732;23;20044;-66
2023/02/26 07:26:46;;;;;;;3.10;1.40;;;8.10;46.90;;;;;;7493116;23;20017;-67
2023/02/26 07:29:47;;;;;;;2.30;1.50;;;8.10;46.90;;;;;;7492396;23;20015;-65
2023/02/26 07:32:48;;;;;;;3.60;1.45;;;8.00;46.80;;;;;;7492178;23;20038;-68
2023/02/26 07:35:50;;;;;;;3.67;1.67;;;8.00;46.80;;;;;;7492621;23;20003;-66
2023/02/26 07:38:50;;;;;;;4.68;1.35;;;8.00;46.80;;;;;;7492295;23;20442;-67
2023/02/26 07:41:52;;;;;;;3.60;1.80;;;8.00;46.80;;;;;;7492336;23;20094;-65
2023/02/26 07:44:54;;;;;;;6.07;1.48;;;8.00;46.80;;;;;;7490643;23;20353;-66
2023/02/26 07:47:55;;;;;;;2.58;1.50;;;8.00;46.80;;;;;;7491911;23;20007;-66
2023/02/26 07:50:56;;;;;;;4.65;1.50;;;8.00;46.80;;;;;;7492468;23;20338;-66
2023/02/26 07:53:57;;;;;;;4.38;1.45;;;8.00;46.80;;;;;;7492133;23;20008;-66
2023/02/26 07:56:58;;;;;;;2.80;1.50;;;8.00;46.60;;;;;;7491847;23;20398;-66
2023/02/26 08:00:00;;;;;;;2.85;1.40;;;8.00;46.60;;;;;;7491817;23;20082;-67
2023/02/26 08:03:01;;;;;;;2.00;1.25;;;8.00;46.50;;;;;;7492203;23;20015;-67
2023/02/26 08:06:04;;;;;;;1.83;1.42;;;8.00;46.30;;;;;;7492052;23;20078;-66
2023/02/26 08:09:05;;;;;;;6.78;2.28;;;8.00;46.10;;;;;;7490460;23;20070;-68
2023/02/26 08:12:06;;;;;;;3.30;1.55;;;8.00;46.10;;;;;;7490852;23;20174;-66
2023/02/26 08:15:07;;;;;;;2.13;1.27;;;8.00;45.90;;;;;;7492811;23;20022;-66
2023/02/26 08:18:10;;;;;;;2.65;1.60;;;8.00;45.70;;;;;;7492353;23;20004;-66
2023/02/26 08:21:11;;;;;;;3.35;2.00;;;7.90;45.70;;;;;;7493230;23;20042;-66
2023/02/26 08:24:12;;;;;;;6.13;1.27;;;8.00;45.70;;;;;;7492495;23;20011;-68
2023/02/26 08:27:13;;;;;;;2.55;1.60;;;8.00;45.50;;;;;;7466579;23;20090;-66
2023/02/26 08:30:15;;;;;;;4.40;1.20;;;8.00;45.40;;;;;;7492219;23;20011;-66
2023/02/26 08:33:16;;;;;;;8.68;1.42;;;8.10;45.20;;;;;;7490745;23;20074;-66
2023/02/26 08:36:17;;;;;;;2.00;1.23;;;8.10;45.10;;;;;;7466501;23;20052;-67
2023/02/26 08:39:18;;;;;;;2.33;1.35;;;8.20;44.80;;;;;;7491443;23;20038;-67
2023/02/26 08:42:19;;;;;;;7.78;1.58;;;8.20;44.40;;;;;;7491514;23;20059;-66
2023/02/26 08:45:20;;;;;;;8.82;1.85;;;8.20;44.20;;;;;;7466573;23;20058;-67
2023/02/26 08:48:22;;;;;;;9.50;1.52;;;8.20;44.10;;;;;;7465876;23;20054;-67
2023/02/26 08:51:23;;;;;;;2.85;1.60;;;8.10;44.00;;;;;;7492073;23;20422;-69
2023/02/26 08:54:24;;;;;;;15.43;1.80;;;8.10;43.80;;;;;;7491745;23;20329;-67
2023/02/26 08:57:26;;;;;;;3.75;1.33;;;8.10;43.70;;;;;;7491776;23;20102;-67
2023/02/26 09:00:27;;;;;;;5.07;2.10;;;8.10;43.40;;;;;;7492734;23;20011;-66
2023/02/26 09:03:28;;;;;;;3.58;1.40;;;8.10;43.40;;;;;;7466902;23;20332;-67
2023/02/26 09:06:30;;;;;;;2.97;1.70;;;8.20;43.20;;;;;;7466230;23;20019;-67
2023/02/26 09:09:31;;;;;;;2.47;1.50;;;8.30;42.80;;;;;;7466002;23;20025;-68
2023/02/26 09:12:32;;;;;;;3.15;1.63;;;8.60;42.70;;;;;;7491421;23;20465;-67
2023/02/26 09:15:33;;;;;;;2.70;1.10;;;8.30;42.20;;;;;;7491540;23;20004;-66
2023/02/26 09:18:34;;;;;;;2.15;1.45;;;8.30;41.60;;;;;;7465080;23;20094;-66
2023/02/26 09:21:35;;;;;;;4.43;1.75;;;8.30;41.60;;;;;;7491144;23;20418;-67
2023/02/26 09:24:36;;;;;;;5.68;1.17;;;8.30;41.50;;;;;;7466490;23;20015;-66
2023/02/26 09:27:37;;;;;;;5.95;1.23;;;8.20;41.20;;;;;;7466851;23;20015;-67
2023/02/26 09:30:38;;;;;;;2.25;1.02;;;8.20;41.30;;;;;;7442908;23;20015;-65
2023/02/26 09:33:40;;;;;;;2.70;1.48;;;8.30;41.20;;;;;;7492175;23;19999;-67
2023/02/26 09:36:42;;;;;;;4.78;1.00;;;8.30;41.00;;;;;;7466090;23;20102;-67
2023/02/26 09:39:44;;;;;;;2.90;1.48;;;8.30;40.90;;;;;;7491007;23;20007;-67
2023/02/26 09:42:54;;;;;;;5.97;1.00;;;8.30;40.20;;;;;;7487553;23;20019;-66
2023/02/26 09:45:59;;;;;;;5.25;1.15;;;8.40;40.20;;;;;;7491107;23;20011;-68
2023/02/26 09:49:14;;;;;;;2.65;0.60;;;8.40;39.90;;;;;;7465349;23;20015;-67
2023/02/26 09:52:37;;;;;;;1.58;0.88;;;8.50;39.40;;;;;;7465831;23;20019;-68
2023/02/26 09:55:49;;;;;;;2.08;1.00;;;8.60;39.10;;;;;;7489127;23;20405;-67
2023/02/26 09:58:54;;;;;;;3.97;0.95;;;8.60;38.50;;;;;;7490397;23;20087;-67
2023/02/26 10:02:20;;;;;;;3.20;1.20;;;8.60;39.20;;;;;;7491012;23;20399;-67
2023/02/26 10:06:08;;;;;;;2.17;1.17;;;8.70;38.80;;;;;;7491063;23;20442;-68
2023/02/26 10:09:47;;;;;;;7.93;1.30;;;8.70;38.60;;;;;;7348234;24;20308;-67
2023/02/26 10:12:51;;;;;;;1.10;0.80;;;8.80;38.60;;;;;;7280264;24;20014;-67
2023/02/26 10:16:00;;;;;;;1.38;0.77;;;9.00;38.20;;;;;;7256314;24;20583;-67
2023/02/26 10:19:10;;;;;;;4.78;1.40;;;9.10;37.80;;;;;;7280434;24;20115;-67
2023/02/26 10:22:27;;;;;;;3.83;1.35;;;9.10;37.50;;;;;;7258386;24;20010;-68
2023/02/26 10:25:38;;;;;;;1.38;0.88;;;9.20;37.50;;;;;;7257202;24;20715;-68
2023/02/26 10:29:16;;;;;;;2.47;1.00;;;9.30;37.20;;;;;;7257558;24;20030;-69
2023/02/26 10:32:54;;;;;;;2.65;0.93;;;9.30;36.80;;;;;;7265076;24;20014;-66
2023/02/26 10:36:01;;;;;;;2.03;0.90;;;9.40;36.60;;;;;;7286260;24;20438;-69
2023/02/26 10:39:30;;;;;;;1.02;0.90;;;9.40;36.10;;;;;;7286575;24;20013;-66
2023/02/26 10:42:59;;;;;;;1.35;1.02;;;9.50;35.70;;;;;;7350686;24;20103;-68
2023/02/26 10:46:03;;;;;;;;;;;9.60;35.20;;;;;;7351211;24;20021;-66
2023/02/26 10:49:21;;;;;;;5.95;1.05;;;9.60;34.50;;;;;;7379670;24;19945;-65
2023/02/26 10:52:28;;;;;;;3.03;1.10;;;9.60;34.30;;;;;;7421683;24;20060;-66
2023/02/26 10:55:42;;;;;;;1.65;1.00;;;9.60;34.10;;;;;;7418757;24;20024;-67
2023/02/26 10:58:45;;;;;;;1.88;1.08;;;9.60;33.90;;;;;;7418482;23;20112;-68
2023/02/26 11:01:47;;;;;;;2.55;0.88;;;9.60;34.10;;;;;;7416355;24;20165;-71
2023/02/26 11:04:47;;;;;;;1.20;1.08;;;9.70;34.20;;;;;;7413548;24;20028;-66
2023/02/26 11:07:56;;;;;;;1.13;1.00;;;9.80;34.00;;;;;;7415624;23;20012;-66
2023/02/26 11:10:59;;;;;;;2.92;0.98;;;9.90;33.80;;;;;;7392894;24;20159;-66
2023/02/26 11:14:00;;;;;;;3.20;0.95;;;10.00;33.60;;;;;;7418106;24;20044;-67
2023/02/26 11:17:09;;;;;;;0.80;0.70;;;10.00;33.80;;;;;;7417806;24;20020;-68
2023/02/26 11:20:10;;;;;;;;;;;10.00;33.80;;;;;;7419340;23;20043;-64
2023/02/26 11:23:15;;;;;;;3.13;1.08;;;10.00;33.70;;;;;;7466813;23;19914;-66
2023/02/26 11:26:18;;;;;;;5.25;1.00;;;10.00;33.40;;;;;;7467413;23;20034;-66
2023/02/26 11:29:21;;;;;;;3.20;0.98;;;9.90;33.60;;;;;;7491391;23;20410;-67
2023/02/26 11:32:30;;;;;;;4.72;0.98;;;9.90;33.80;;;;;;7491481;23;20807;-68
2023/02/26 11:35:31;;;;;;;1.23;0.90;;;9.90;33.90;;;;;;7491966;23;20043;-67
2023/02/26 11:39:18;;;;;;;1.48;1.02;;;10.00;34.10;;;;;;7466489;23;20012;-68
2023/02/26 11:42:19;;;;;;;0.98;0.93;;;10.10;34.00;;;;;;7281322;24;20478;-67
2023/02/26 11:45:21;;;;;;;3.28;1.65;;;10.30;33.40;;;;;;7259615;24;20014;-65
2023/02/26 11:48:25;;;;;;;3.67;0.80;;;10.30;33.30;;;;;;7282358;24;20017;-66
2023/02/26 11:51:28;;;;;;;5.85;1.35;;;10.30;33.10;;;;;;7282283;24;20414;-66
2023/02/26 11:54:29;;;;;;;1.58;0.98;;;10.30;32.90;;;;;;7281893;24;20045;-66
2023/02/26 11:57:32;;;;;;;1.30;0.82;;;10.20;32.90;;;;;;7281516;24;20014;-68
2023/02/26 12:00:37;;;;;;;3.80;1.08;;;10.20;32.80;;;;;;7281890;24;20116;-67
2023/02/26 12:03:42;;;;;;;2.15;0.98;;;10.20;32.90;;;;;;7282378;24;20041;-67
2023/02/26 12:06:44;;;;;;;1.13;0.93;;;10.30;32.60;;;;;;7259197;24;20022;-67
2023/02/26 12:09:46;;;;;;;0.93;0.75;;;10.40;32.60;;;;;;7281755;24;20041;-68
2023/02/26 12:12:53;;;;;;;0.93;0.90;;;10.50;32.40;;;;;;7282119;24;20017;-67
2023/02/26 12:16:15;;;;;;;1.98;1.00;;;10.70;33.00;;;;;;7283562;24;20048;-68
2023/02/26 12:19:58;;;;;;;1.15;0.90;;;10.90;32.10;;;;;;7412385;23;20078;-69
2023/02/26 12:23:16;;;;;;;0.93;0.70;;;10.90;31.80;;;;;;7349375;24;20013;-68
2023/02/26 12:26:17;;;;;;;1.08;0.70;;;11.00;31.50;;;;;;7349716;24;20017;-67
2023/02/26 12:29:51;;;;;;;2.65;0.90;;;11.10;31.00;;;;;;7349141;24;20443;-67
2023/02/26 12:33:12;;;;;;;1.60;1.02;;;11.20;31.00;;;;;;7349547;24;20468;-67
2023/02/26 12:36:42;;;;;;;0.88;0.65;;;11.20;30.90;;;;;;7349817;24;20032;-66
2023/02/26 12:40:05;;;;;;;3.40;1.05;;;11.10;30.80;;;;;;7280968;24;20097;-68
2023/02/26 12:43:39;;;;;;;1.20;1.02;;;11.10;31.30;;;;;;7281650;24;20020;-69
2023/02/26 12:46:56;;;;;;;1.27;0.75;;;11.10;31.20;;;;;;7259434;24;20018;-68
2023/02/26 12:50:07;;;;;;;2.17;1.05;;;11.20;31.10;;;;;;7259120;24;20403;-66
2023/02/26 12:53:29;;;;;;;1.40;1.00;;;11.10;31.00;;;;;;7280912;24;20014;-68
2023/02/26 12:56:57;;;;;;;0.88;0.68;;;11.40;30.90;;;;;;7281986;24;20014;-69
2023/02/26 13:00:13;;;;;;;1.20;0.90;;;11.60;30.60;;;;;;7325622;24;20017;-67
2023/02/26 13:03:38;;;;;;;1.13;0.70;;;11.70;30.40;;;;;;7383358;24;20340;-68
2023/02/26 13:06:48;;;;;;;2.28;1.33;;;11.60;30.20;;;;;;7383389;24;20372;-69
2023/02/26 13:09:59;;;;;;;5.15;1.10;;;11.50;30.20;;;;;;7382033;24;20012;-69
2023/02/26 13:13:14;;;;;;;1.15;0.73;;;11.20;30.40;;;;;;7361551;24;20061;-67
2023/02/26 13:16:17;;;;;;;1.50;0.77;;;11.10;30.50;;;;;;7451687;23;20007;-67
2023/02/26 13:19:47;;;;;;;1.98;1.00;;;11.00;30.80;;;;;;7489213;23;20030;-67
2023/02/26 13:22:53;;;;;;;1.55;1.00;;;11.00;31.10;;;;;;7360641;24;20444;-67
2023/02/26 13:26:01;;;;;;;2.72;1.10;;;10.90;30.90;;;;;;7383490;24;20020;-68
2023/02/26 13:29:10;;;;;;;2.58;1.08;;;10.90;30.90;;;;;;7382885;24;20017;-67
2023/02/26 13:32:20;;;;;;;8.32;1.23;;;10.90;31.00;;;;;;7360233;24;20016;-67
2023/02/26 13:35:32;;;;;;;1.02;0.93;;;10.80;30.70;;;;;;7360311;24;20013;-68
2023/02/26 13:38:51;;;;;;;1.33;0.90;;;10.70;30.80;;;;;;7382710;24;20012;-67
2023/02/26 13:42:05;;;;;;;6.57;0.90;;;10.60;30.70;;;;;;7383389;24;20084;-69
2023/02/26 13:45:24;;;;;;;3.55;1.27;;;10.60;30.80;;;;;;7383452;24;20017;-69
2023/02/26 13:48:43;;;;;;;;;;;10.40;30.70;;;;;;7383854;24;20040;-67
2023/02/26 13:51:50;;;;;;;1.70;1.10;;;10.40;30.80;;;;;;7383858;24;19918;-67
2023/02/26 13:54:53;;;;;;;3.83;0.73;;;10.30;30.90;;;;;;7383288;24;20315;-67
2023/02/26 13:57:53;;;;;;;2.20;1.13;;;10.30;31.10;;;;;;7382502;24;20340;-66
2023/02/26 14:01:03;;;;;;;2.85;0.90;;;10.40;31.20;;;;;;7491342;23;20110;-69
2023/02/26 14:04:07;;;;;;;1.67;0.80;;;10.40;30.90;;;;;;7489807;23;20011;-68
2023/02/26 14:07:15;;;;;;;2.90;1.10;;;10.40;30.80;;;;;;7493418;23;20018;-67
2023/02/26 14:10:25;;;;;;;1.45;0.80;;;10.50;30.80;;;;;;7493382;23;20430;-70
2023/02/26 14:13:38;;;;;;;2.25;1.23;;;10.50;30.60;;;;;;7493659;23;20475;-68
2023/02/26 14:16:43;;;;;;;3.28;1.15;;;10.60;30.40;;;;;;7493875;23;20666;-67
2023/02/26 14:19:50;;;;;;;3.78;1.00;;;10.50;30.30;;;;;;7493353;23;20354;-67
2023/02/26 14:23:08;;;;;;;1.63;1.15;;;10.50;30.10;;;;;;7492310;23;20391;-66
2023/02/26 14:26:15;;;;;;;2.00;1.00;;;10.30;30.10;;;;;;7490381;23;20401;-67
2023/02/26 14:29:16;;;;;;;0.85;0.73;;;10.20;30.10;;;;;;7493483;23;20029;-66
2023/02/26 14:33:07;;;;;;;0.65;0.50;;;10.10;30.20;;;;;;7492802;23;20014;-67
2023/02/26 14:36:17;;;;;;;3.70;0.98;;;10.10;30.50;;;;;;7385624;24;20009;-67
2023/02/26 14:39:36;;;;;;;0.93;0.90;;;10.00;30.40;;;;;;7385071;24;20091;-66
2023/02/26 14:42:47;;;;;;;0.80;0.43;;;10.00;30.50;;;;;;7385246;24;20084;-67
2023/02/26 14:45:49;;;;;;;3.80;0.70;;;9.90;30.30;;;;;;7384837;24;20343;-68
2023/02/26 14:48:51;;;;;;;0.93;0.77;;;9.80;30.30;;;;;;7362183;24;20013;-66
2023/02/26 14:51:52;;;;;;;5.93;0.82;;;9.80;30.40;;;;;;7386609;24;20108;-67
2023/02/26 14:55:07;;;;;;;2.10;1.13;;;9.70;30.50;;;;;;7384765;24;20023;-67
2023/02/26 14:58:38;;;;;;;2.30;0.77;;;9.60;30.50;;;;;;7384152;24;20020;-66
2023/02/26 15:01:44;;;;;;;3.28;0.63;;;9.50;30.70;;;;;;7384905;24;20069;-68
2023/02/26 15:04:57;;;;;;;3.67;1.17;;;9.50;30.90;;;;;;7385116;24;20015;-66
2023/02/26 15:07:58;;;;;;;2.58;0.95;;;9.40;31.00;;;;;;7384068;24;20009;-65
2023/02/26 15:11:24;;;;;;;1.83;0.98;;;9.30;31.20;;;;;;7385673;23;20502;-67
2023/02/26 15:15:12;;;;;;;9.15;1.17;;;9.30;31.20;;;;;;7492681;23;20333;-71
2023/02/26 15:18:27;;;;;;;1.63;0.77;;;9.20;31.40;;;;;;7383440;24;20028;-73
2023/02/26 15:21:29;;;;;;;0.40;0.40;;;9.10;31.60;;;;;;7384660;24;20055;-66
2023/02/26 15:24:31;;;;;;;0.50;0.50;;;9.10;31.60;;;;;;7338943;24;20384;-66
2023/02/26 15:27:33;;;;;;;0.75;0.60;;;9.10;31.70;;;;;;7383979;24;20355;-66
2023/02/26 15:30:35;;;;;;;2.05;0.77;;;9.10;31.90;;;;;;7338258;24;20254;-66
2023/02/26 15:33:36;;;;;;;0.73;0.60;;;9.10;31.90;;;;;;7361351;24;20292;-68
2023/02/26 15:36:43;;;;;;;0.45;0.32;;;9.20;32.00;;;;;;7361180;24;20059;-66
2023/02/26 15:39:51;;;;;;;1.95;0.77;;;9.20;32.00;;;;;;7383837;24;20027;-66
2023/02/26 15:42:54;;;;;;;1.35;0.60;;;9.20;32.10;;;;;;7361073;24;20025;-66
2023/02/26 15:45:57;;;;;;;1.25;0.80;;;9.20;32.10;;;;;;7383743;24;20027;-67
2023/02/26 15:49:10;;;;;;;1.10;0.80;;;9.20;32.20;;;;;;7383510;24;20052;-67
2023/02/26 15:52:15;;;;;;;2.00;1.13;;;9.10;32.20;;;;;;7338381;24;20571;-66
2023/02/26 15:55:17;;;;;;;1.20;0.68;;;9.10;32.30;;;;;;7483938;23;20012;-67
2023/02/26 15:58:52;;;;;;;1.85;0.70;;;9.10;32.60;;;;;;7489842;23;20019;-66
2023/02/26 16:01:54;;;;;;;1.55;0.88;;;9.00;32.90;;;;;;7491498;23;20019;-66
2023/02/26 16:04:55;;;;;;;2.53;1.23;;;9.00;33.10;;;;;;7492096;23;20063;-67
2023/02/26 16:07:56;;;;;;;3.83;0.70;;;9.00;33.30;;;;;;7491095;23;20019;-67
2023/02/26 16:10:59;;;;;;;0.88;0.70;;;9.00;33.40;;;;;;7491871;23;20015;-65
2023/02/26 16:14:01;;;;;;;2.20;1.00;;;9.00;33.50;;;;;;7491837;23;20287;-65
2023/02/26 16:17:05;;;;;;;7.90;0.80;;;9.10;33.60;;;;;;7465808;23;20007;-66
2023/02/26 16:20:19;;;;;;;1.80;0.80;;;9.00;33.70;;;;;;7489372;23;20366;-64
2023/02/26 16:23:42;;;;;;;1.88;0.98;;;9.00;34.00;;;;;;7467748;23;20092;-66
2023/02/26 16:26:52;;;;;;;2.70;0.60;;;8.90;34.40;;;;;;7490014;23;20025;-66
2023/02/26 16:29:56;;;;;;;4.13;1.02;;;8.80;34.80;;;;;;7491215;23;20040;-68